sensor_id;sensor_type;location;lat;lon;timestamp;P1;durP1;ratioP1;P2;durP2;ratioP2
2035;SDS011;23642;42.658;23.350;2022-07-12T00:02:06;78.27;;;73.87;;
2035;SDS011;23642;42.658;23.350;2022-07-12T00:04:33;79.97;;;75.47;;
2035;SDS011;23642;42.658;23.350;2022-07-12T00:07:00;78.83;;;74.53;;
2035;SDS011;23642;42.658;23.350;2022-07-12T00:09:27;82.13;;;77.73;;
2035;SDS011;23642;42.658;23.350;2022-07-12T00:11:57;80.97;;;76.57;;
2035;SDS011;23642;42.658;23.350;2022-07-12T00:14:24;77.93;;;73.50;;
2035;SDS011;23642;42.658;23.350;2022-07-12T00:16:51;79.40;;;74.90;;
2035;SDS011;23642;42.658;23.350;2022-07-12T00:19:18;77.53;;;73.37;;
2035;SDS011;23642;42.658;23.350;2022-07-12T00:21:46;75.50;;;71.30;;
2035;SDS011;23642;42.658;23.350;2022-07-12T00:24:13;77.10;;;72.80;;
2035;SDS011;23642;42.658;23.350;2022-07-12T00:26:40;76.63;;;72.43;;
2035;SDS011;23642;42.658;23.350;2022-07-12T00:29:08;77.07;;;72.50;;
2035;SDS011;23642;42.658;23.350;2022-07-12T00:31:36;76.30;;;72.00;;
2035;SDS011;23642;42.658;23.350;2022-07-12T00:34:03;76.67;;;72.40;;
2035;SDS011;23642;42.658;23.350;2022-07-12T00:36:29;74.97;;;70.87;;
2035;SDS011;23642;42.658;23.350;2022-07-12T00:38:57;73.60;;;69.43;;
2035;SDS011;23642;42.658;23.350;2022-07-12T00:41:24;72.63;;;68.40;;
2035;SDS011;23642;42.658;23.350;2022-07-12T00:43:51;73.10;;;68.90;;
2035;SDS011;23642;42.658;23.350;2022-07-12T00:46:21;75.33;;;71.13;;
2035;SDS011;23642;42.658;23.350;2022-07-12T00:48:49;74.57;;;70.37;;
2035;SDS011;23642;42.658;23.350;2022-07-12T00:51:16;72.63;;;68.43;;
2035;SDS011;23642;42.658;23.350;2022-07-12T00:53:44;75.37;;;71.17;;
2035;SDS011;23642;42.658;23.350;2022-07-12T00:56:12;73.33;;;69.23;;
2035;SDS011;23642;42.658;23.350;2022-07-12T00:58:39;72.30;;;68.30;;
2035;SDS011;23642;42.658;23.350;2022-07-12T01:01:06;74.70;;;70.40;;
2035;SDS011;23642;42.658;23.350;2022-07-12T01:03:35;73.17;;;68.97;;
2035;SDS011;23642;42.658;23.350;2022-07-12T01:06:03;72.10;;;67.90;;
2035;SDS011;23642;42.658;23.350;2022-07-12T01:08:31;74.23;;;70.13;;
2035;SDS011;23642;42.658;23.350;2022-07-12T01:10:59;71.30;;;67.30;;
2035;SDS011;23642;42.658;23.350;2022-07-12T01:13:26;75.20;;;70.80;;
2035;SDS011;23642;42.658;23.350;2022-07-12T01:15:54;74.83;;;70.27;;
2035;SDS011;23642;42.658;23.350;2022-07-12T01:18:21;76.53;;;72.03;;
2035;SDS011;23642;42.658;23.350;2022-07-12T01:20:50;75.00;;;70.60;;
2035;SDS011;23642;42.658;23.350;2022-07-12T01:23:18;75.07;;;70.80;;
2035;SDS011;23642;42.658;23.350;2022-07-12T01:25:47;76.47;;;72.00;;
2035;SDS011;23642;42.658;23.350;2022-07-12T01:28:14;77.23;;;72.63;;
2035;SDS011;23642;42.658;23.350;2022-07-12T01:30:41;78.10;;;73.70;;
2035;SDS011;23642;42.658;23.350;2022-07-12T01:33:08;76.33;;;71.73;;
2035;SDS011;23642;42.658;23.350;2022-07-12T01:35:35;78.50;;;73.80;;
2035;SDS011;23642;42.658;23.350;2022-07-12T01:38:02;77.43;;;72.70;;
2035;SDS011;23642;42.658;23.350;2022-07-12T01:40:30;79.43;;;73.87;;
2035;SDS011;23642;42.658;23.350;2022-07-12T01:42:58;81.27;;;76.27;;
2035;SDS011;23642;42.658;23.350;2022-07-12T01:45:25;80.73;;;76.03;;
2035;SDS011;23642;42.658;23.350;2022-07-12T01:47:52;82.20;;;77.40;;
2035;SDS011;23642;42.658;23.350;2022-07-12T01:50:26;81.50;;;76.27;;
2035;SDS011;23642;42.658;23.350;2022-07-12T01:52:53;84.00;;;78.17;;
2035;SDS011;23642;42.658;23.350;2022-07-12T01:55:21;82.03;;;77.13;;
2035;SDS011;23642;42.658;23.350;2022-07-12T01:57:50;79.60;;;74.80;;
2035;SDS011;23642;42.658;23.350;2022-07-12T02:00:17;82.07;;;77.07;;
2035;SDS011;23642;42.658;23.350;2022-07-12T02:02:45;83.30;;;78.30;;
2035;SDS011;23642;42.658;23.350;2022-07-12T02:05:13;84.03;;;79.03;;
2035;SDS011;23642;42.658;23.350;2022-07-12T02:07:40;81.07;;;76.27;;
2035;SDS011;23642;42.658;23.350;2022-07-12T02:10:08;83.03;;;78.03;;
2035;SDS011;23642;42.658;23.350;2022-07-12T02:12:35;86.83;;;81.53;;
2035;SDS011;23642;42.658;23.350;2022-07-12T02:15:05;85.77;;;80.50;;
2035;SDS011;23642;42.658;23.350;2022-07-12T02:17:32;83.33;;;78.40;;
2035;SDS011;23642;42.658;23.350;2022-07-12T02:20:00;86.23;;;80.80;;
2035;SDS011;23642;42.658;23.350;2022-07-12T02:22:27;85.50;;;80.20;;
2035;SDS011;23642;42.658;23.350;2022-07-12T02:24:54;84.70;;;79.60;;
2035;SDS011;23642;42.658;23.350;2022-07-12T02:27:21;86.50;;;81.23;;
2035;SDS011;23642;42.658;23.350;2022-07-12T02:29:48;82.53;;;77.57;;
2035;SDS011;23642;42.658;23.350;2022-07-12T02:32:16;84.33;;;79.27;;
2035;SDS011;23642;42.658;23.350;2022-07-12T02:34:43;85.20;;;80.03;;
2035;SDS011;23642;42.658;23.350;2022-07-12T02:37:12;85.80;;;80.50;;
2035;SDS011;23642;42.658;23.350;2022-07-12T02:39:39;84.57;;;79.47;;
2035;SDS011;23642;42.658;23.350;2022-07-12T02:42:06;84.67;;;79.40;;
2035;SDS011;23642;42.658;23.350;2022-07-12T02:44:33;83.87;;;78.60;;
2035;SDS011;23642;42.658;23.350;2022-07-12T02:47:00;85.00;;;79.73;;
2035;SDS011;23642;42.658;23.350;2022-07-12T02:49:32;84.37;;;79.13;;
2035;SDS011;23642;42.658;23.350;2022-07-12T02:51:59;82.70;;;77.57;;
2035;SDS011;23642;42.658;23.350;2022-07-12T02:54:25;81.60;;;76.60;;
2035;SDS011;23642;42.658;23.350;2022-07-12T02:56:52;84.30;;;79.20;;
2035;SDS011;23642;42.658;23.350;2022-07-12T02:59:19;85.80;;;80.60;;
2035;SDS011;23642;42.658;23.350;2022-07-12T03:01:46;81.93;;;76.73;;
2035;SDS011;23642;42.658;23.350;2022-07-12T03:04:13;82.80;;;77.60;;
2035;SDS011;23642;42.658;23.350;2022-07-12T03:06:42;82.47;;;77.47;;
2035;SDS011;23642;42.658;23.350;2022-07-12T03:09:09;83.60;;;78.40;;
2035;SDS011;23642;42.658;23.350;2022-07-12T03:11:35;79.70;;;74.80;;
2035;SDS011;23642;42.658;23.350;2022-07-12T03:14:02;82.10;;;77.00;;
2035;SDS011;23642;42.658;23.350;2022-07-12T03:16:29;82.03;;;76.93;;
2035;SDS011;23642;42.658;23.350;2022-07-12T03:18:56;81.60;;;76.60;;
2035;SDS011;23642;42.658;23.350;2022-07-12T03:21:23;84.50;;;79.20;;
2035;SDS011;23642;42.658;23.350;2022-07-12T03:23:51;84.67;;;79.43;;
2035;SDS011;23642;42.658;23.350;2022-07-12T03:26:18;81.00;;;75.97;;
2035;SDS011;23642;42.658;23.350;2022-07-12T03:28:46;81.37;;;76.17;;
2035;SDS011;23642;42.658;23.350;2022-07-12T03:31:13;82.27;;;77.27;;
2035;SDS011;23642;42.658;23.350;2022-07-12T03:33:40;80.33;;;75.23;;
2035;SDS011;23642;42.658;23.350;2022-07-12T03:36:07;79.70;;;74.80;;
2035;SDS011;23642;42.658;23.350;2022-07-12T03:38:34;81.43;;;76.33;;
2035;SDS011;23642;42.658;23.350;2022-07-12T03:41:03;81.53;;;76.13;;
2035;SDS011;23642;42.658;23.350;2022-07-12T03:43:30;82.13;;;77.03;;
2035;SDS011;23642;42.658;23.350;2022-07-12T03:45:57;82.00;;;76.80;;
2035;SDS011;23642;42.658;23.350;2022-07-12T03:48:24;82.80;;;77.60;;
2035;SDS011;23642;42.658;23.350;2022-07-12T03:50:51;81.37;;;76.17;;
2035;SDS011;23642;42.658;23.350;2022-07-12T03:53:18;80.23;;;75.13;;
2035;SDS011;23642;42.658;23.350;2022-07-12T03:55:45;82.37;;;77.13;;
2035;SDS011;23642;42.658;23.350;2022-07-12T03:58:14;79.60;;;74.57;;
2035;SDS011;23642;42.658;23.350;2022-07-12T04:00:41;83.97;;;78.67;;
2035;SDS011;23642;42.658;23.350;2022-07-12T04:03:08;83.27;;;77.87;;
2035;SDS011;23642;42.658;23.350;2022-07-12T04:05:36;81.30;;;76.00;;
2035;SDS011;23642;42.658;23.350;2022-07-12T04:08:03;84.17;;;78.67;;
2035;SDS011;23642;42.658;23.350;2022-07-12T04:10:30;81.80;;;76.60;;
2035;SDS011;23642;42.658;23.350;2022-07-12T04:12:58;81.80;;;76.80;;
2035;SDS011;23642;42.658;23.350;2022-07-12T04:15:26;81.97;;;76.77;;
2035;SDS011;23642;42.658;23.350;2022-07-12T04:17:53;82.10;;;76.90;;
2035;SDS011;23642;42.658;23.350;2022-07-12T04:20:19;80.40;;;75.40;;
2035;SDS011;23642;42.658;23.350;2022-07-12T04:22:46;82.43;;;77.10;;
2035;SDS011;23642;42.658;23.350;2022-07-12T04:25:13;86.00;;;80.60;;
2035;SDS011;23642;42.658;23.350;2022-07-12T04:27:40;84.37;;;79.07;;
2035;SDS011;23642;42.658;23.350;2022-07-12T04:30:07;82.17;;;76.97;;
2035;SDS011;23642;42.658;23.350;2022-07-12T04:32:37;84.37;;;78.80;;
2035;SDS011;23642;42.658;23.350;2022-07-12T04:35:04;84.83;;;79.23;;
2035;SDS011;23642;42.658;23.350;2022-07-12T04:37:32;84.10;;;78.70;;
2035;SDS011;23642;42.658;23.350;2022-07-12T04:39:59;85.23;;;79.63;;
2035;SDS011;23642;42.658;23.350;2022-07-12T04:42:26;84.63;;;79.30;;
2035;SDS011;23642;42.658;23.350;2022-07-12T04:44:53;85.03;;;79.53;;
2035;SDS011;23642;42.658;23.350;2022-07-12T04:47:22;87.20;;;81.27;;
2035;SDS011;23642;42.658;23.350;2022-07-12T04:49:54;82.77;;;77.60;;
2035;SDS011;23642;42.658;23.350;2022-07-12T04:52:20;85.77;;;80.37;;
2035;SDS011;23642;42.658;23.350;2022-07-12T04:54:48;86.73;;;81.13;;
2035;SDS011;23642;42.658;23.350;2022-07-12T04:57:14;86.10;;;80.70;;
2035;SDS011;23642;42.658;23.350;2022-07-12T04:59:41;87.37;;;81.80;;
2035;SDS011;23642;42.658;23.350;2022-07-12T05:02:08;89.10;;;83.37;;
2035;SDS011;23642;42.658;23.350;2022-07-12T05:04:35;86.00;;;80.20;;
2035;SDS011;23642;42.658;23.350;2022-07-12T05:07:03;86.03;;;80.67;;
2035;SDS011;23642;42.658;23.350;2022-07-12T05:09:30;88.33;;;82.77;;
2035;SDS011;23642;42.658;23.350;2022-07-12T05:11:59;89.10;;;83.60;;
2035;SDS011;23642;42.658;23.350;2022-07-12T05:14:26;87.30;;;81.80;;
2035;SDS011;23642;42.658;23.350;2022-07-12T05:16:53;86.63;;;81.23;;
2035;SDS011;23642;42.658;23.350;2022-07-12T05:19:20;86.60;;;81.10;;
2035;SDS011;23642;42.658;23.350;2022-07-12T05:21:47;89.90;;;83.87;;
2035;SDS011;23642;42.658;23.350;2022-07-12T05:24:15;87.17;;;81.13;;
2035;SDS011;23642;42.658;23.350;2022-07-12T05:26:42;87.57;;;81.97;;
2035;SDS011;23642;42.658;23.350;2022-07-12T05:29:11;85.03;;;79.63;;
2035;SDS011;23642;42.658;23.350;2022-07-12T05:31:38;86.27;;;80.77;;
2035;SDS011;23642;42.658;23.350;2022-07-12T05:34:05;88.53;;;82.93;;
2035;SDS011;23642;42.658;23.350;2022-07-12T05:36:35;88.47;;;82.70;;
2035;SDS011;23642;42.658;23.350;2022-07-12T05:39:01;87.27;;;81.80;;
2035;SDS011;23642;42.658;23.350;2022-07-12T05:41:30;87.83;;;82.13;;
2035;SDS011;23642;42.658;23.350;2022-07-12T05:44:01;90.83;;;85.07;;
2035;SDS011;23642;42.658;23.350;2022-07-12T05:46:28;87.17;;;81.47;;
2035;SDS011;23642;42.658;23.350;2022-07-12T05:48:55;86.57;;;80.97;;
2035;SDS011;23642;42.658;23.350;2022-07-12T05:51:22;86.60;;;80.57;;
2035;SDS011;23642;42.658;23.350;2022-07-12T05:54:06;86.50;;;80.90;;
2035;SDS011;23642;42.658;23.350;2022-07-12T05:56:37;86.93;;;81.13;;
2035;SDS011;23642;42.658;23.350;2022-07-12T05:59:05;87.20;;;81.80;;
2035;SDS011;23642;42.658;23.350;2022-07-12T06:01:31;83.13;;;77.27;;
2035;SDS011;23642;42.658;23.350;2022-07-12T06:03:58;88.70;;;83.17;;
2035;SDS011;23642;42.658;23.350;2022-07-12T06:06:28;87.60;;;82.20;;
2035;SDS011;23642;42.658;23.350;2022-07-12T06:08:55;84.97;;;79.57;;
2035;SDS011;23642;42.658;23.350;2022-07-12T06:11:21;86.60;;;81.00;;
2035;SDS011;23642;42.658;23.350;2022-07-12T06:13:49;84.30;;;79.10;;
2035;SDS011;23642;42.658;23.350;2022-07-12T06:16:16;86.17;;;80.67;;
2035;SDS011;23642;42.658;23.350;2022-07-12T06:18:43;82.07;;;76.97;;
2035;SDS011;23642;42.658;23.350;2022-07-12T06:21:10;82.83;;;77.03;;
2035;SDS011;23642;42.658;23.350;2022-07-12T06:23:39;84.37;;;79.03;;
2035;SDS011;23642;42.658;23.350;2022-07-12T06:26:06;80.27;;;75.33;;
2035;SDS011;23642;42.658;23.350;2022-07-12T06:28:33;84.33;;;79.03;;
2035;SDS011;23642;42.658;23.350;2022-07-12T06:31:02;81.43;;;76.37;;
2035;SDS011;23642;42.658;23.350;2022-07-12T06:33:29;84.13;;;78.30;;
2035;SDS011;23642;42.658;23.350;2022-07-12T06:36:03;82.23;;;76.90;;
2035;SDS011;23642;42.658;23.350;2022-07-12T06:38:34;80.97;;;75.97;;
2035;SDS011;23642;42.658;23.350;2022-07-12T06:41:01;83.47;;;78.03;;
2035;SDS011;23642;42.658;23.350;2022-07-12T06:43:31;83.03;;;77.90;;
2035;SDS011;23642;42.658;23.350;2022-07-12T06:46:01;81.50;;;76.50;;
2035;SDS011;23642;42.658;23.350;2022-07-12T06:48:28;82.63;;;77.40;;
2035;SDS011;23642;42.658;23.350;2022-07-12T06:50:58;80.90;;;75.90;;
2035;SDS011;23642;42.658;23.350;2022-07-12T06:53:28;83.67;;;78.30;;
2035;SDS011;23642;42.658;23.350;2022-07-12T06:55:56;84.50;;;79.30;;
2035;SDS011;23642;42.658;23.350;2022-07-12T06:58:23;80.90;;;75.77;;
2035;SDS011;23642;42.658;23.350;2022-07-12T07:00:50;80.30;;;75.27;;
2035;SDS011;23642;42.658;23.350;2022-07-12T07:03:18;82.40;;;77.13;;
2035;SDS011;23642;42.658;23.350;2022-07-12T07:05:45;84.23;;;79.10;;
2035;SDS011;23642;42.658;23.350;2022-07-12T07:08:12;83.30;;;78.00;;
2035;SDS011;23642;42.658;23.350;2022-07-12T07:10:39;81.20;;;76.30;;
2035;SDS011;23642;42.658;23.350;2022-07-12T07:13:07;79.47;;;74.67;;
2035;SDS011;23642;42.658;23.350;2022-07-12T07:15:35;82.70;;;77.40;;
2035;SDS011;23642;42.658;23.350;2022-07-12T07:18:08;83.40;;;78.20;;
2035;SDS011;23642;42.658;23.350;2022-07-12T07:20:36;82.63;;;77.53;;
2035;SDS011;23642;42.658;23.350;2022-07-12T07:23:03;83.87;;;78.60;;
2035;SDS011;23642;42.658;23.350;2022-07-12T07:25:30;82.87;;;77.83;;
2035;SDS011;23642;42.658;23.350;2022-07-12T07:27:57;83.30;;;77.80;;
2035;SDS011;23642;42.658;23.350;2022-07-12T07:30:24;83.07;;;78.07;;
2035;SDS011;23642;42.658;23.350;2022-07-12T07:33:08;82.97;;;77.87;;
2035;SDS011;23642;42.658;23.350;2022-07-12T07:35:36;81.03;;;76.00;;
2035;SDS011;23642;42.658;23.350;2022-07-12T07:38:03;83.47;;;78.37;;
2035;SDS011;23642;42.658;23.350;2022-07-12T07:40:30;82.13;;;76.90;;
2035;SDS011;23642;42.658;23.350;2022-07-12T07:42:57;81.83;;;76.83;;
2035;SDS011;23642;42.658;23.350;2022-07-12T07:45:37;81.07;;;76.07;;
2035;SDS011;23642;42.658;23.350;2022-07-12T07:48:06;81.40;;;76.17;;
2035;SDS011;23642;42.658;23.350;2022-07-12T07:50:33;83.37;;;78.17;;
2035;SDS011;23642;42.658;23.350;2022-07-12T07:53:01;81.13;;;76.23;;
2035;SDS011;23642;42.658;23.350;2022-07-12T07:55:29;81.07;;;76.17;;
2035;SDS011;23642;42.658;23.350;2022-07-12T07:57:56;80.63;;;75.73;;
2035;SDS011;23642;42.658;23.350;2022-07-12T08:00:24;82.07;;;77.10;;
2035;SDS011;23642;42.658;23.350;2022-07-12T08:02:51;81.30;;;76.20;;
2035;SDS011;23642;42.658;23.350;2022-07-12T08:05:27;84.03;;;78.97;;
2035;SDS011;23642;42.658;23.350;2022-07-12T08:07:54;84.27;;;79.10;;
2035;SDS011;23642;42.658;23.350;2022-07-12T08:10:22;82.50;;;77.37;;
2035;SDS011;23642;42.658;23.350;2022-07-12T08:12:50;82.77;;;77.67;;
2035;SDS011;23642;42.658;23.350;2022-07-12T08:15:28;79.63;;;74.87;;
2035;SDS011;23642;42.658;23.350;2022-07-12T08:17:56;79.97;;;75.17;;
2035;SDS011;23642;42.658;23.350;2022-07-12T08:20:29;82.20;;;77.20;;
2035;SDS011;23642;42.658;23.350;2022-07-12T08:22:59;84.27;;;78.97;;
2035;SDS011;23642;42.658;23.350;2022-07-12T08:25:38;82.20;;;77.30;;
2035;SDS011;23642;42.658;23.350;2022-07-12T08:28:08;82.77;;;77.80;;
2035;SDS011;23642;42.658;23.350;2022-07-12T08:30:54;81.47;;;76.67;;
2035;SDS011;23642;42.658;23.350;2022-07-12T08:33:51;82.07;;;76.77;;
2035;SDS011;23642;42.658;23.350;2022-07-12T08:36:18;81.43;;;76.53;;
2035;SDS011;23642;42.658;23.350;2022-07-12T08:38:47;82.03;;;77.03;;
2035;SDS011;23642;42.658;23.350;2022-07-12T08:41:15;82.03;;;77.10;;
2035;SDS011;23642;42.658;23.350;2022-07-12T08:43:46;82.30;;;77.40;;
2035;SDS011;23642;42.658;23.350;2022-07-12T08:46:33;82.13;;;76.97;;
2035;SDS011;23642;42.658;23.350;2022-07-12T08:49:04;84.30;;;79.20;;
2035;SDS011;23642;42.658;23.350;2022-07-12T08:51:32;82.27;;;77.27;;
2035;SDS011;23642;42.658;23.350;2022-07-12T08:54:09;82.87;;;77.97;;
2035;SDS011;23642;42.658;23.350;2022-07-12T08:56:39;83.70;;;78.73;;
2035;SDS011;23642;42.658;23.350;2022-07-12T09:02:03;82.97;;;77.90;;
2035;SDS011;23642;42.658;23.350;2022-07-12T09:04:30;82.60;;;77.50;;
2035;SDS011;23642;42.658;23.350;2022-07-12T09:06:57;82.87;;;77.87;;
2035;SDS011;23642;42.658;23.350;2022-07-12T09:09:40;82.40;;;77.50;;
2035;SDS011;23642;42.658;23.350;2022-07-12T09:12:12;82.87;;;77.77;;
2035;SDS011;23642;42.658;23.350;2022-07-12T09:14:51;85.60;;;80.50;;
2035;SDS011;23642;42.658;23.350;2022-07-12T09:17:21;82.40;;;77.60;;
2035;SDS011;23642;42.658;23.350;2022-07-12T09:19:53;81.80;;;76.60;;
2035;SDS011;23642;42.658;23.350;2022-07-12T09:22:24;83.67;;;78.70;;
2035;SDS011;23642;42.658;23.350;2022-07-12T09:24:58;85.00;;;79.97;;
2035;SDS011;23642;42.658;23.350;2022-07-12T09:27:49;85.50;;;80.60;;
2035;SDS011;23642;42.658;23.350;2022-07-12T09:30:20;84.63;;;79.50;;
2035;SDS011;23642;42.658;23.350;2022-07-12T09:32:56;82.43;;;77.60;;
2035;SDS011;23642;42.658;23.350;2022-07-12T09:35:47;83.97;;;78.97;;
2035;SDS011;23642;42.658;23.350;2022-07-12T09:38:35;84.23;;;79.40;;
2035;SDS011;23642;42.658;23.350;2022-07-12T09:41:03;85.60;;;80.60;;
2035;SDS011;23642;42.658;23.350;2022-07-12T09:43:33;84.63;;;79.70;;
2035;SDS011;23642;42.658;23.350;2022-07-12T09:46:03;83.00;;;78.20;;
2035;SDS011;23642;42.658;23.350;2022-07-12T09:48:30;80.53;;;75.77;;
2035;SDS011;23642;42.658;23.350;2022-07-12T09:50:59;83.07;;;77.90;;
2035;SDS011;23642;42.658;23.350;2022-07-12T09:56:36;81.50;;;76.60;;
2035;SDS011;23642;42.658;23.350;2022-07-12T09:59:08;81.10;;;76.20;;
2035;SDS011;23642;42.658;23.350;2022-07-12T10:01:40;81.00;;;76.30;;
2035;SDS011;23642;42.658;23.350;2022-07-12T10:04:08;81.60;;;76.70;;
2035;SDS011;23642;42.658;23.350;2022-07-12T10:06:39;81.33;;;76.40;;
2035;SDS011;23642;42.658;23.350;2022-07-12T10:09:09;85.00;;;80.00;;
2035;SDS011;23642;42.658;23.350;2022-07-12T10:11:36;82.50;;;77.60;;
2035;SDS011;23642;42.658;23.350;2022-07-12T10:14:04;79.57;;;74.87;;
2035;SDS011;23642;42.658;23.350;2022-07-12T10:16:36;80.87;;;76.10;;
2035;SDS011;23642;42.658;23.350;2022-07-12T10:19:34;81.43;;;76.53;;
2035;SDS011;23642;42.658;23.350;2022-07-12T10:22:02;81.00;;;76.23;;
2035;SDS011;23642;42.658;23.350;2022-07-12T10:24:47;79.93;;;75.03;;
2035;SDS011;23642;42.658;23.350;2022-07-12T10:27:26;80.80;;;76.00;;
2035;SDS011;23642;42.658;23.350;2022-07-12T10:30:11;84.33;;;79.33;;
2035;SDS011;23642;42.658;23.350;2022-07-12T10:32:50;82.17;;;77.27;;
2035;SDS011;23642;42.658;23.350;2022-07-12T10:35:26;82.43;;;77.63;;
2035;SDS011;23642;42.658;23.350;2022-07-12T10:40:44;83.27;;;78.30;;
2035;SDS011;23642;42.658;23.350;2022-07-12T10:43:13;85.40;;;80.40;;
2035;SDS011;23642;42.658;23.350;2022-07-12T10:45:42;84.40;;;79.50;;
2035;SDS011;23642;42.658;23.350;2022-07-12T10:48:19;81.37;;;76.33;;
2035;SDS011;23642;42.658;23.350;2022-07-12T10:50:51;85.00;;;80.00;;
2035;SDS011;23642;42.658;23.350;2022-07-12T10:53:33;83.60;;;78.27;;
2035;SDS011;23642;42.658;23.350;2022-07-12T10:56:09;85.10;;;80.20;;
2035;SDS011;23642;42.658;23.350;2022-07-12T10:58:39;85.40;;;80.50;;
2035;SDS011;23642;42.658;23.350;2022-07-12T11:01:08;84.07;;;79.17;;
2035;SDS011;23642;42.658;23.350;2022-07-12T11:03:40;83.10;;;78.23;;
2035;SDS011;23642;42.658;23.350;2022-07-12T11:06:10;83.00;;;78.30;;
2035;SDS011;23642;42.658;23.350;2022-07-12T11:08:51;82.20;;;77.17;;
2035;SDS011;23642;42.658;23.350;2022-07-12T11:11:23;82.13;;;77.27;;
2035;SDS011;23642;42.658;23.350;2022-07-12T11:13:51;86.10;;;81.00;;
2035;SDS011;23642;42.658;23.350;2022-07-12T11:16:20;84.20;;;79.30;;
2035;SDS011;23642;42.658;23.350;2022-07-12T11:18:49;82.13;;;77.37;;
2035;SDS011;23642;42.658;23.350;2022-07-12T11:21:16;83.07;;;78.37;;
2035;SDS011;23642;42.658;23.350;2022-07-12T11:23:43;83.50;;;78.70;;
2035;SDS011;23642;42.658;23.350;2022-07-12T11:26:13;85.07;;;80.07;;
2035;SDS011;23642;42.658;23.350;2022-07-12T11:28:41;86.63;;;81.53;;
2035;SDS011;23642;42.658;23.350;2022-07-12T11:31:12;83.77;;;78.87;;
2035;SDS011;23642;42.658;23.350;2022-07-12T11:33:41;85.00;;;80.00;;
2035;SDS011;23642;42.658;23.350;2022-07-12T11:36:11;83.97;;;79.07;;
2035;SDS011;23642;42.658;23.350;2022-07-12T11:38:44;84.30;;;79.37;;
2035;SDS011;23642;42.658;23.350;2022-07-12T11:41:12;84.20;;;79.17;;
2035;SDS011;23642;42.658;23.350;2022-07-12T11:43:42;83.50;;;78.70;;
2035;SDS011;23642;42.658;23.350;2022-07-12T11:46:09;84.40;;;79.60;;
2035;SDS011;23642;42.658;23.350;2022-07-12T11:48:36;84.50;;;79.63;;
2035;SDS011;23642;42.658;23.350;2022-07-12T11:51:05;81.33;;;76.50;;
2035;SDS011;23642;42.658;23.350;2022-07-12T11:53:34;79.73;;;75.03;;
2035;SDS011;23642;42.658;23.350;2022-07-12T11:56:04;82.03;;;77.17;;
2035;SDS011;23642;42.658;23.350;2022-07-12T11:58:33;82.23;;;77.43;;
2035;SDS011;23642;42.658;23.350;2022-07-12T12:01:05;82.83;;;77.83;;
2035;SDS011;23642;42.658;23.350;2022-07-12T12:03:41;84.03;;;79.00;;
2035;SDS011;23642;42.658;23.350;2022-07-12T12:06:09;84.40;;;79.27;;
2035;SDS011;23642;42.658;23.350;2022-07-12T12:08:37;83.80;;;78.90;;
2035;SDS011;23642;42.658;23.350;2022-07-12T12:11:04;84.77;;;79.37;;
2035;SDS011;23642;42.658;23.350;2022-07-12T12:13:33;82.67;;;77.87;;
2035;SDS011;23642;42.658;23.350;2022-07-12T12:16:00;83.47;;;78.70;;
2035;SDS011;23642;42.658;23.350;2022-07-12T12:18:29;83.63;;;78.53;;
2035;SDS011;23642;42.658;23.350;2022-07-12T12:21:06;83.70;;;78.80;;
2035;SDS011;23642;42.658;23.350;2022-07-12T12:26:42;82.93;;;78.07;;
2035;SDS011;23642;42.658;23.350;2022-07-12T12:29:09;84.30;;;79.10;;
2035;SDS011;23642;42.658;23.350;2022-07-12T12:31:36;85.10;;;79.90;;
2035;SDS011;23642;42.658;23.350;2022-07-12T12:34:11;85.87;;;80.77;;
2035;SDS011;23642;42.658;23.350;2022-07-12T12:36:40;83.00;;;78.00;;
2035;SDS011;23642;42.658;23.350;2022-07-12T12:39:07;84.47;;;79.57;;
2035;SDS011;23642;42.658;23.350;2022-07-12T12:41:39;83.67;;;78.57;;
2035;SDS011;23642;42.658;23.350;2022-07-12T12:44:10;86.00;;;81.10;;
2035;SDS011;23642;42.658;23.350;2022-07-12T12:46:44;82.87;;;78.00;;
2035;SDS011;23642;42.658;23.350;2022-07-12T12:49:18;83.13;;;78.00;;
2035;SDS011;23642;42.658;23.350;2022-07-12T12:51:51;83.70;;;78.90;;
2035;SDS011;23642;42.658;23.350;2022-07-12T12:54:33;82.83;;;77.83;;
2035;SDS011;23642;42.658;23.350;2022-07-12T12:57:15;82.13;;;77.30;;
2035;SDS011;23642;42.658;23.350;2022-07-12T12:59:52;83.80;;;79.00;;
2035;SDS011;23642;42.658;23.350;2022-07-12T13:02:20;81.10;;;76.40;;
2035;SDS011;23642;42.658;23.350;2022-07-12T13:04:49;84.57;;;79.57;;
2035;SDS011;23642;42.658;23.350;2022-07-12T13:07:16;83.13;;;78.33;;
2035;SDS011;23642;42.658;23.350;2022-07-12T13:09:43;84.03;;;79.13;;
2035;SDS011;23642;42.658;23.350;2022-07-12T13:12:11;81.10;;;76.40;;
2035;SDS011;23642;42.658;23.350;2022-07-12T13:14:47;84.10;;;79.17;;
2035;SDS011;23642;42.658;23.350;2022-07-12T13:17:18;75.18;;;70.47;;
2035;SDS011;23642;42.658;23.350;2022-07-12T13:19:48;81.27;;;76.37;;
2035;SDS011;23642;42.658;23.350;2022-07-12T13:22:15;81.87;;;76.63;;
2035;SDS011;23642;42.658;23.350;2022-07-12T13:24:41;83.13;;;78.10;;
2035;SDS011;23642;42.658;23.350;2022-07-12T13:27:08;82.57;;;77.87;;
2035;SDS011;23642;42.658;23.350;2022-07-12T13:29:37;82.67;;;77.97;;
2035;SDS011;23642;42.658;23.350;2022-07-12T13:32:16;81.93;;;77.20;;
2035;SDS011;23642;42.658;23.350;2022-07-12T13:37:57;84.47;;;79.50;;
2035;SDS011;23642;42.658;23.350;2022-07-12T13:40:27;82.70;;;78.00;;
2035;SDS011;23642;42.658;23.350;2022-07-12T13:42:54;83.33;;;78.50;;
2035;SDS011;23642;42.658;23.350;2022-07-12T13:45:23;82.57;;;77.77;;
2035;SDS011;23642;42.658;23.350;2022-07-12T13:47:53;84.57;;;79.57;;
2035;SDS011;23642;42.658;23.350;2022-07-12T13:50:21;81.90;;;76.63;;
2035;SDS011;23642;42.658;23.350;2022-07-12T13:52:49;82.87;;;77.57;;
2035;SDS011;23642;42.658;23.350;2022-07-12T13:55:16;82.17;;;77.37;;
2035;SDS011;23642;42.658;23.350;2022-07-12T13:57:47;82.23;;;77.53;;
2035;SDS011;23642;42.658;23.350;2022-07-12T14:00:14;80.37;;;75.73;;
2035;SDS011;23642;42.658;23.350;2022-07-12T14:02:44;85.07;;;79.97;;
2035;SDS011;23642;42.658;23.350;2022-07-12T14:05:15;80.53;;;75.87;;
2035;SDS011;23642;42.658;23.350;2022-07-12T14:07:51;84.17;;;79.27;;
2035;SDS011;23642;42.658;23.350;2022-07-12T14:10:19;81.03;;;76.33;;
2035;SDS011;23642;42.658;23.350;2022-07-12T14:12:46;81.70;;;76.63;;
2035;SDS011;23642;42.658;23.350;2022-07-12T14:15:14;81.30;;;76.40;;
2035;SDS011;23642;42.658;23.350;2022-07-12T14:17:46;81.50;;;76.80;;
2035;SDS011;23642;42.658;23.350;2022-07-12T14:20:18;82.60;;;77.60;;
2035;SDS011;23642;42.658;23.350;2022-07-12T14:22:46;83.30;;;78.13;;
2035;SDS011;23642;42.658;23.350;2022-07-12T14:25:14;81.37;;;76.37;;
2035;SDS011;23642;42.658;23.350;2022-07-12T14:27:42;80.47;;;75.77;;
2035;SDS011;23642;42.658;23.350;2022-07-12T14:30:25;81.93;;;76.97;;
2035;SDS011;23642;42.658;23.350;2022-07-12T14:32:54;83.00;;;77.87;;
2035;SDS011;23642;42.658;23.350;2022-07-12T14:35:20;80.40;;;75.80;;
2035;SDS011;23642;42.658;23.350;2022-07-12T14:37:50;82.93;;;78.13;;
2035;SDS011;23642;42.658;23.350;2022-07-12T14:40:17;86.67;;;81.47;;
2035;SDS011;23642;42.658;23.350;2022-07-12T14:42:44;87.03;;;81.73;;
2035;SDS011;23642;42.658;23.350;2022-07-12T14:45:11;86.03;;;80.93;;
2035;SDS011;23642;42.658;23.350;2022-07-12T14:47:39;86.90;;;81.37;;
2035;SDS011;23642;42.658;23.350;2022-07-12T14:50:19;85.03;;;80.07;;